XS92 weather

South Tajos Ranch Airport
Sarita, Texas, United States

Public forecast

Using degrees Fahrenheit for public forecast. Weather courtesy of forecast.io.

Closest aviation weather report (METAR) to South Tajos Ranch Airport

Closest report is Brooks County Airport, 31.7 nm (58.6 km) NW. Retrieved 2019/10/17 06:35 UTC (0 seconds ago):

KBKS 170635Z AUTO 01007KT 10SM SCT018 OVC048 19/12 A3006 RMK AO1 T01850115

Closest aviation forecast (TAF) to South Tajos Ranch Airport

Closest forecast is Valley International Airport, 38.4 nm (71.1 km) S. Retrieved 2019/10/17 06:42 UTC (0 seconds ago):

TAF KHRL 170539Z 1706/1806 34012G18KT P6SM OVC020 TEMPO 1709/1713 P6SM SHRA OVC009 FM171300 35011KT P6SM VCSH OVC025 FM180000 36009KT P6SM OVC035